Time;durP1;ratioP1;P1;durP2;ratioP2;P2;SDS_P1;SDS_P2;PMS_P1;PMS_P2;Temp;Humidity;BMP_temperature;BMP_pressure;BME280_temperature;BME280_humidity;BME280_pressure;Samples;Min_cycle;Max_cycle;Signal;HPM_P1;HPM_P2
2022/09/17 00:00:21;;;;;;;;;;;11.80;99.90;;;;;;5113932;27;19928;-60
2022/09/17 00:02:54;;;;;;;;;;;11.90;99.90;;;;;;5100575;27;20387;-59
2022/09/17 00:05:23;;;;;;;;;;;11.90;99.90;;;;;;5132012;27;19920;-59
2022/09/17 00:07:49;;;;;;;;;;;12.00;99.90;;;;;;5129394;27;19921;-59
2022/09/17 00:10:15;;;;;;;;;;;12.00;99.90;;;;;;5131878;27;19998;-61
2022/09/17 00:12:41;;;;;;;;;;;12.00;99.90;;;;;;5130620;27;20313;-60
2022/09/17 00:15:07;;;;;;;;;;;12.00;99.90;;;;;;5131166;27;19923;-59
2022/09/17 00:17:32;;;;;;;;;;;12.00;99.90;;;;;;5097488;28;19926;-60
2022/09/17 00:19:58;;;;;;;;;;;12.00;99.90;;;;;;5118244;27;19919;-60
2022/09/17 00:22:23;;;;;;;;;;;11.90;99.90;;;;;;5099844;28;20421;-60
2022/09/17 00:24:49;;;;;;;;;;;11.90;99.90;;;;;;5131009;27;19920;-61
2022/09/17 00:27:15;;;;;;;;;;;11.80;99.90;;;;;;5131485;27;20379;-59
2022/09/17 00:29:40;;;;;;;;;;;11.60;99.90;;;;;;5111238;27;20387;-59
2022/09/17 00:32:06;;;;;;;;;;;11.50;99.90;;;;;;5102695;28;19935;-60
2022/09/17 00:34:31;;;;;;;;;;;11.40;99.90;;;;;;5129266;27;19929;-65
2022/09/17 00:36:57;;;;;;;;;;;11.40;99.90;;;;;;5113123;28;20273;-60
2022/09/17 00:39:22;;;;;;;;;;;11.30;99.90;;;;;;5119111;28;19920;-60
2022/09/17 00:41:48;;;;;;;;;;;11.20;99.90;;;;;;5093681;28;19919;-59
2022/09/17 00:44:32;;;;;;;;;;;11.20;99.90;;;;;;5128662;28;19923;-59
2022/09/17 00:46:58;;;;;;;;;;;11.20;99.90;;;;;;5145231;27;19924;-59
2022/09/17 00:49:27;;;;;;;;;;;11.10;99.90;;;;;;5104267;28;19943;-59
2022/09/17 00:51:56;;;;;;;;;;;11.00;99.90;;;;;;5128036;28;19926;-60
2022/09/17 00:54:22;;;;;;;;;;;11.10;99.90;;;;;;5123341;28;19927;-60
2022/09/17 00:56:48;;;;;;;;;;;11.00;99.90;;;;;;5113627;28;20609;-59
2022/09/17 00:59:14;;;;;;;;;;;11.00;99.90;;;;;;5110362;28;19920;-60
2022/09/17 01:01:40;;;;;;;;;;;11.00;99.90;;;;;;5126127;27;19923;-60
2022/09/17 01:04:06;;;;;;;;;;;11.00;99.90;;;;;;5114104;27;19941;-59
2022/09/17 01:06:31;;;;;;;;;;;10.90;99.90;;;;;;5140554;27;19948;-59
2022/09/17 01:09:12;;;;;;;;;;;10.90;99.90;;;;;;5134788;27;19916;-59
2022/09/17 01:11:38;;;;;;;;;;;11.00;99.90;;;;;;5127567;27;20391;-63
2022/09/17 01:14:16;;;;;;;;;;;11.00;99.90;;;;;;5134718;27;19920;-59
2022/09/17 01:16:59;;;;;;;;;;;11.00;99.90;;;;;;5133625;27;20384;-60
2022/09/17 01:19:36;;;;;;;;;;;11.00;99.90;;;;;;5102509;27;19962;-60
2022/09/17 01:22:06;;;;;;;;;;;11.00;99.90;;;;;;5128083;27;20010;-60
2022/09/17 01:24:41;;;;;;;;;;;11.00;99.90;;;;;;5113013;27;19927;-59
2022/09/17 01:27:25;;;;;;;;;;;11.00;99.90;;;;;;5115965;27;20276;-60
2022/09/17 01:30:30;;;;;;;;;;;11.00;99.90;;;;;;5133639;27;19926;-59
2022/09/17 01:33:09;;;;;;;;;;;11.00;99.90;;;;;;5030655;28;19926;-59
2022/09/17 01:35:39;;;;;;;;;;;11.00;99.90;;;;;;5051079;28;19920;-60
2022/09/17 01:38:04;;;;;;;;;;;11.00;99.90;;;;;;5096864;27;19926;-59
2022/09/17 01:40:39;;;;;;;;;;;11.10;99.90;;;;;;5095987;28;19923;-60
2022/09/17 01:43:08;;;;;;;;;;;11.10;99.90;;;;;;5127697;27;19967;-60
2022/09/17 01:45:46;;;;;;;;;;;11.10;99.90;;;;;;5134634;27;19920;-60
2022/09/17 01:48:16;;;;;;;;;;;11.20;99.90;;;;;;5131043;27;19924;-60
2022/09/17 01:50:45;;;;;;;;;;;11.20;99.90;;;;;;5128836;27;20403;-63
2022/09/17 01:53:13;;;;;;;;;;;11.20;99.90;;;;;;5133504;27;19931;-59
2022/09/17 01:55:39;;;;;;;;;;;11.10;99.90;;;;;;5116117;27;20364;-61
2022/09/17 01:58:25;;;;;;;;;;;11.10;99.90;;;;;;5130656;27;19946;-59
2022/09/17 02:00:53;;;;;;;;;;;11.00;99.90;;;;;;5134960;27;19953;-60
2022/09/17 02:03:21;;;;;;;;;;;11.00;99.90;;;;;;5115999;27;19919;-59
2022/09/17 02:05:55;;;;;;;;;;;11.00;99.90;;;;;;5119557;27;19926;-60
2022/09/17 02:08:23;;;;;;;;;;;11.00;99.90;;;;;;5131913;27;19976;-58
2022/09/17 02:11:09;;;;;;;;;;;11.00;99.90;;;;;;5133725;27;20357;-60
2022/09/17 02:13:43;;;;;;;;;;;10.90;99.90;;;;;;5133043;27;20303;-60
2022/09/17 02:16:15;;;;;;;;;;;10.70;99.90;;;;;;5121244;27;19923;-59
2022/09/17 02:18:59;;;;;;;;;;;10.90;99.90;;;;;;5106270;27;19927;-59
2022/09/17 02:21:32;;;;;;;;;;;10.90;99.90;;;;;;5133749;27;19987;-59
2022/09/17 02:24:19;;;;;;;;;;;10.90;99.90;;;;;;5133338;27;19923;-59
2022/09/17 02:26:47;;;;;;;;;;;10.80;99.90;;;;;;5098236;28;19923;-62
2022/09/17 02:29:33;;;;;;;;;;;10.90;99.90;;;;;;5124618;27;20006;-60
2022/09/17 02:31:58;;;;;;;;;;;10.90;99.90;;;;;;5114309;27;20287;-60
2022/09/17 02:34:26;;;;;;;;;;;11.00;99.90;;;;;;5123361;27;19926;-59
2022/09/17 02:36:52;;;;;;;;;;;11.10;99.90;;;;;;5131234;27;19930;-61
2022/09/17 02:39:18;;;;;;;;;;;11.10;99.90;;;;;;5107513;28;19926;-60
2022/09/17 02:41:46;;;;;;;;;;;11.10;99.90;;;;;;5132737;27;19923;-59
2022/09/17 02:44:15;;;;;;;;;;;11.10;99.90;;;;;;5114473;27;20382;-59
2022/09/17 02:46:44;;;;;;;;;;;11.00;99.90;;;;;;5131432;27;19935;-59
2022/09/17 02:49:16;;;;;;;;;;;11.00;99.90;;;;;;5118246;27;19923;-59
2022/09/17 02:51:45;;;;;;;;;;;11.00;99.90;;;;;;5114544;27;19975;-59
2022/09/17 02:54:16;;;;;;;;;;;11.00;99.90;;;;;;5122085;27;19946;-60
2022/09/17 02:56:45;;;;;;;;;;;11.00;99.90;;;;;;5125640;27;20374;-59
2022/09/17 02:59:23;;;;;;;;;;;11.00;99.90;;;;;;5132634;27;19930;-59
2022/09/17 03:02:04;;;;;;;;;;;11.00;99.90;;;;;;5122483;27;20385;-62
2022/09/17 03:04:31;;;;;;;;;;;11.00;99.90;;;;;;5096470;28;19927;-60
2022/09/17 03:06:58;;;;;;;;;;;10.90;99.90;;;;;;5118721;27;19927;-60
2022/09/17 03:09:24;;;;;;;;;;;10.90;99.90;;;;;;5116054;27;19923;-59
2022/09/17 03:11:49;;;;;;;;;;;10.90;99.90;;;;;;5097194;28;19965;-59
2022/09/17 03:14:15;;;;;;;;;;;10.80;99.90;;;;;;5102462;27;19927;-58
2022/09/17 03:16:40;;;;;;;;;;;10.90;99.90;;;;;;5111850;28;20376;-60
2022/09/17 03:19:07;;;;;;;;;;;10.80;99.90;;;;;;5111550;28;19979;-59
2022/09/17 03:21:32;;;;;;;;;;;10.70;99.90;;;;;;5112265;27;19924;-59
2022/09/17 03:23:59;;;;;;;;;;;10.70;99.90;;;;;;5104413;27;19923;-59
2022/09/17 03:26:25;;;;;;;;;;;10.70;99.90;;;;;;5093565;28;19919;-59
2022/09/17 03:28:51;;;;;;;;;;;10.70;99.90;;;;;;5112098;28;19923;-59
2022/09/17 03:31:16;;;;;;;;;;;10.60;99.90;;;;;;5113278;27;20123;-61
2022/09/17 03:33:42;;;;;;;;;;;10.60;99.90;;;;;;5123460;27;20292;-59
2022/09/17 03:36:07;;;;;;;;;;;10.60;99.90;;;;;;5080269;28;19919;-60
2022/09/17 03:38:33;;;;;;;;;;;10.70;99.90;;;;;;5111776;28;19919;-60
2022/09/17 03:41:03;;;;;;;;;;;10.70;99.90;;;;;;5103105;27;19924;-59
2022/09/17 03:43:29;;;;;;;;;;;10.80;99.90;;;;;;5101518;27;20286;-60
2022/09/17 03:45:55;;;;;;;;;;;10.90;99.90;;;;;;5133359;27;19919;-59
2022/09/17 03:48:20;;;;;;;;;;;11.00;99.90;;;;;;5113133;27;20308;-63
2022/09/17 03:50:46;;;;;;;;;;;11.10;99.90;;;;;;5132103;27;20447;-59
2022/09/17 03:53:12;;;;;;;;;;;11.10;99.90;;;;;;5129032;27;19934;-59
2022/09/17 03:55:37;;;;;;;;;;;11.00;99.90;;;;;;5118425;27;19938;-59
2022/09/17 03:58:03;;;;;;;;;;;11.00;99.90;;;;;;5117027;27;19973;-59
2022/09/17 04:00:29;;;;;;;;;;;10.90;99.90;;;;;;5115384;27;20353;-59
2022/09/17 04:02:54;;;;;;;;;;;10.80;99.90;;;;;;5114338;27;19942;-59
2022/09/17 04:05:20;;;;;;;;;;;10.90;99.90;;;;;;5124067;27;19915;-59
2022/09/17 04:07:45;;;;;;;;;;;10.70;99.90;;;;;;5077346;28;19931;-59
2022/09/17 04:10:11;;;;;;;;;;;10.70;99.90;;;;;;5111066;27;20022;-59
2022/09/17 04:12:37;;;;;;;;;;;10.60;99.90;;;;;;5110761;28;19975;-59
2022/09/17 04:15:03;;;;;;;;;;;10.60;99.90;;;;;;5122233;27;19999;-62
2022/09/17 04:17:28;;;;;;;;;;;10.60;99.90;;;;;;5122517;27;19927;-60
2022/09/17 04:19:54;;;;;;;;;;;10.60;99.90;;;;;;5122480;27;20023;-58
2022/09/17 04:22:19;;;;;;;;;;;10.50;99.90;;;;;;5110737;28;19930;-59
2022/09/17 04:24:45;;;;;;;;;;;10.50;99.90;;;;;;5116360;28;20044;-60
2022/09/17 04:27:11;;;;;;;;;;;10.50;99.90;;;;;;5101976;27;19927;-60
2022/09/17 04:29:36;;;;;;;;;;;10.50;99.90;;;;;;5094844;28;19927;-60
2022/09/17 04:32:02;;;;;;;;;;;10.50;99.90;;;;;;5092837;28;19919;-62
2022/09/17 04:34:28;;;;;;;;;;;10.50;99.90;;;;;;5114113;27;19930;-60
2022/09/17 04:36:53;;;;;;;;;;;10.50;99.90;;;;;;5117220;27;19923;-60
2022/09/17 04:39:19;;;;;;;;;;;10.50;99.90;;;;;;5116942;27;19920;-59
2022/09/17 04:41:45;;;;;;;;;;;10.50;99.90;;;;;;5127027;28;20265;-59
2022/09/17 04:44:10;;;;;;;;;;;10.50;99.90;;;;;;5112221;28;19926;-60
2022/09/17 04:46:36;;;;;;;;;;;10.50;99.90;;;;;;5118710;28;20001;-60
2022/09/17 04:49:01;;;;;;;;;;;10.40;99.90;;;;;;5132243;27;20303;-60
2022/09/17 04:51:27;;;;;;;;;;;10.50;99.90;;;;;;5130803;28;19942;-59
2022/09/17 04:53:52;;;;;;;;;;;10.50;99.90;;;;;;5131318;28;19992;-59
2022/09/17 04:56:18;;;;;;;;;;;10.50;99.90;;;;;;5123574;28;19923;-59
2022/09/17 04:58:44;;;;;;;;;;;10.40;99.90;;;;;;5121910;27;20329;-60
2022/09/17 05:01:09;;;;;;;;;;;10.40;99.90;;;;;;5109791;27;19920;-59
2022/09/17 05:03:35;;;;;;;;;;;10.40;99.90;;;;;;5112020;27;19920;-59
2022/09/17 05:06:00;;;;;;;;;;;10.30;99.90;;;;;;5093149;28;20347;-59
2022/09/17 05:08:26;;;;;;;;;;;10.30;99.90;;;;;;5093476;27;19928;-59
2022/09/17 05:10:51;;;;;;;;;;;10.30;99.90;;;;;;5121534;27;19935;-61
2022/09/17 05:13:17;;;;;;;;;;;10.30;99.90;;;;;;5091967;28;19924;-59
2022/09/17 05:15:43;;;;;;;;;;;10.30;99.90;;;;;;5110908;28;20010;-62
2022/09/17 05:18:09;;;;;;;;;;;10.30;99.90;;;;;;5112815;28;19924;-63
2022/09/17 05:20:35;;;;;;;;;;;10.30;99.90;;;;;;5115690;27;19988;-60
2022/09/17 05:23:00;;;;;;;;;;;10.30;99.90;;;;;;5110192;28;20022;-59
2022/09/17 05:25:26;;;;;;;;;;;10.30;99.90;;;;;;5091836;28;19924;-59
2022/09/17 05:27:52;;;;;;;;;;;10.30;99.90;;;;;;5111819;28;19928;-59
2022/09/17 05:30:18;;;;;;;;;;;10.40;99.90;;;;;;5121553;27;19919;-59
2022/09/17 05:32:44;;;;;;;;;;;10.50;99.90;;;;;;5125712;27;19919;-60
2022/09/17 05:35:09;;;;;;;;;;;10.50;99.90;;;;;;5092398;28;19931;-59
2022/09/17 05:37:35;;;;;;;;;;;10.60;99.90;;;;;;5124971;28;20373;-59
2022/09/17 05:40:02;;;;;;;;;;;10.80;99.90;;;;;;5116493;28;19919;-60
2022/09/17 05:42:27;;;;;;;;;;;10.90;99.90;;;;;;5141528;27;19951;-59
2022/09/17 05:44:53;;;;;;;;;;;11.00;99.90;;;;;;5131959;27;19954;-59
2022/09/17 05:47:19;;;;;;;;;;;11.10;99.90;;;;;;5113073;27;20385;-58
2022/09/17 05:49:44;;;;;;;;;;;11.30;99.90;;;;;;5123767;27;19991;-60
2022/09/17 05:52:10;;;;;;;;;;;11.30;99.90;;;;;;5116714;27;20379;-59
2022/09/17 05:54:35;;;;;;;;;;;11.30;99.90;;;;;;5115630;27;19932;-61
2022/09/17 05:57:01;;;;;;;;;;;11.40;99.90;;;;;;5119650;27;20030;-61
2022/09/17 05:59:26;;;;;;;;;;;11.40;99.90;;;;;;5108049;27;19924;-60
2022/09/17 06:01:52;;;;;;;;;;;11.40;99.90;;;;;;5132795;27;19923;-61
2022/09/17 06:04:18;;;;;;;;;;;11.50;99.90;;;;;;5114577;27;19919;-60
2022/09/17 06:06:43;;;;;;;;;;;11.50;99.90;;;;;;5095347;27;19980;-60
2022/09/17 06:09:09;;;;;;;;;;;11.50;99.90;;;;;;5095675;28;19990;-60
2022/09/17 06:11:35;;;;;;;;;;;11.50;99.90;;;;;;5116495;27;19934;-61
2022/09/17 06:14:01;;;;;;;;;;;11.30;99.90;;;;;;5118891;27;19971;-61
2022/09/17 06:16:27;;;;;;;;;;;11.20;99.90;;;;;;5094913;28;19971;-59
2022/09/17 06:18:52;;;;;;;;;;;11.00;99.90;;;;;;5098770;27;19987;-59
2022/09/17 06:21:20;;;;;;;;;;;11.00;99.90;;;;;;5097481;28;20356;-64
2022/09/17 06:23:46;;;;;;;;;;;10.80;99.90;;;;;;5111158;27;19923;-62
2022/09/17 06:26:12;;;;;;;;;;;10.70;99.90;;;;;;5107183;27;19924;-59
2022/09/17 06:28:38;;;;;;;;;;;10.70;99.90;;;;;;5112840;28;20551;-60
2022/09/17 06:31:04;;;;;;;;;;;10.60;99.90;;;;;;5096656;28;19941;-59
2022/09/17 06:33:31;;;;;;;;;;;10.70;99.90;;;;;;5123138;27;19991;-59
2022/09/17 06:35:59;;;;;;;;;;;10.80;99.90;;;;;;5116822;27;20368;-62
2022/09/17 06:38:24;;;;;;;;;;;10.90;99.90;;;;;;5112146;28;19920;-59
2022/09/17 06:40:51;;;;;;;;;;;11.00;99.90;;;;;;5122532;27;19929;-59
2022/09/17 06:43:16;;;;;;;;;;;11.20;99.90;;;;;;5131591;27;19930;-61
2022/09/17 06:45:42;;;;;;;;;;;11.30;99.90;;;;;;5115010;27;19946;-60
2022/09/17 06:48:08;;;;;;;;;;;11.50;99.90;;;;;;5133122;27;19929;-59
2022/09/17 06:50:33;;;;;;;;;;;11.60;99.90;;;;;;5127306;27;19976;-58
2022/09/17 06:52:59;;;;;;;;;;;11.70;99.90;;;;;;5116029;27;19920;-59
2022/09/17 06:55:25;;;;;;;;;;;11.70;99.90;;;;;;5096737;27;19925;-59
2022/09/17 06:57:50;;;;;;;;;;;11.80;99.90;;;;;;5111112;27;19919;-59
2022/09/17 07:00:16;;;;;;;;;;;11.80;99.90;;;;;;5111946;28;19920;-59
2022/09/17 07:02:42;;;;;;;;;;;11.80;99.90;;;;;;5093876;28;20522;-59
2022/09/17 07:05:08;;;;;;;;;;;11.90;99.90;;;;;;5115371;27;19931;-59
2022/09/17 07:07:40;;;;;;;;;;;12.00;99.90;;;;;;5114206;27;20272;-59
2022/09/17 07:10:05;;;;;;;;;;;12.10;99.90;;;;;;5093291;28;19954;-59
2022/09/17 07:12:31;;;;;;;;;;;12.20;99.90;;;;;;5093456;27;20395;-59
2022/09/17 07:14:57;;;;;;;;;;;12.40;99.90;;;;;;5113733;27;20669;-59
2022/09/17 07:17:22;;;;;;;;;;;12.50;99.90;;;;;;5132659;27;19930;-58
2022/09/17 07:19:48;;;;;;;;;;;12.60;99.90;;;;;;5124914;27;20236;-59
2022/09/17 07:22:13;;;;;;;;;;;12.50;99.90;;;;;;5117757;27;19962;-59
2022/09/17 07:24:39;;;;;;;;;;;12.40;99.90;;;;;;5113000;27;19923;-59
2022/09/17 07:27:04;;;;;;;;;;;12.30;99.90;;;;;;5097209;27;19920;-59
2022/09/17 07:29:31;;;;;;;;;;;12.20;99.90;;;;;;5092838;28;19920;-59
2022/09/17 07:31:58;;;;;;;;;;;12.20;99.90;;;;;;5111260;28;19927;-59
2022/09/17 07:34:24;;;;;;;;;;;12.40;99.90;;;;;;5112053;27;19987;-60
2022/09/17 07:36:49;;;;;;;;;;;12.70;99.90;;;;;;5117261;27;20283;-59
2022/09/17 07:39:15;;;;;;;;;;;13.10;99.90;;;;;;5111105;28;19926;-59
2022/09/17 07:41:40;;;;;;;;;;;13.60;99.90;;;;;;5082144;27;19926;-59
2022/09/17 07:44:06;;;;;;;;;;;14.60;99.90;;;;;;5115949;27;19974;-59
2022/09/17 07:46:32;;;;;;;;;;;15.60;99.90;;;;;;5118609;27;20010;-59
2022/09/17 07:48:58;;;;;;;;;;;;;;;;;;5122530;27;19923;-59
2022/09/17 07:51:24;;;;;;;;;;;;;;;;;;5101363;27;19939;-61
2022/09/17 07:53:59;;;;;;;;;;;16.70;99.90;;;;;;5111607;27;19970;-60
2022/09/17 07:56:25;;;;;;;;;;;16.60;99.90;;;;;;5093775;28;19923;-60
2022/09/17 07:58:52;;;;;;;;;;;15.60;99.90;;;;;;5101706;27;19916;-59
2022/09/17 08:01:19;;;;;;;;;;;14.80;99.90;;;;;;5092951;28;19996;-59
2022/09/17 08:03:52;;;;;;;;;;;14.30;99.90;;;;;;5118538;27;20067;-59
2022/09/17 08:06:19;;;;;;;;;;;14.20;99.90;;;;;;5101906;28;20399;-59
2022/09/17 08:08:45;;;;;;;;;;;15.30;99.90;;;;;;5125127;27;19972;-59
2022/09/17 08:11:12;;;;;;;;;;;16.70;99.90;;;;;;5098676;28;20326;-59
2022/09/17 08:13:38;;;;;;;;;;;18.00;99.90;;;;;;5092352;28;19927;-60
2022/09/17 08:16:05;;;;;;;;;;;18.40;99.90;;;;;;5095798;27;19928;-60
2022/09/17 08:18:30;;;;;;;;;;;18.60;99.90;;;;;;5125328;27;19924;-59
2022/09/17 08:21:00;;;;;;;;;;;18.90;99.80;;;;;;5091825;28;20292;-60
2022/09/17 08:23:26;;;;;;;;;;;19.50;99.40;;;;;;5111524;28;20368;-60
2022/09/17 08:25:56;;;;;;;;;;;20.00;99.20;;;;;;5110249;28;19934;-60
2022/09/17 08:28:22;;;;;;;;;;;20.50;98.40;;;;;;5112711;27;19931;-60
2022/09/17 08:30:49;;;;;;;;;;;21.10;98.00;;;;;;5105058;27;19923;-62
2022/09/17 08:33:15;;;;;;;;;;;21.20;96.90;;;;;;5119760;27;19924;-64
2022/09/17 08:35:40;;;;;;;;;;;21.50;96.50;;;;;;5097242;27;19927;-63
2022/09/17 08:38:09;;;;;;;;;;;21.50;94.70;;;;;;5122745;27;20143;-62
2022/09/17 08:40:41;;;;;;;;;;;21.60;95.00;;;;;;5119217;28;19923;-60
2022/09/17 08:46:22;;;;;;;;;;;21.70;92.30;;;;;;5107956;27;20377;-60
2022/09/17 08:48:51;;;;;;;;;;;21.40;93.10;;;;;;5099607;28;20404;-60
2022/09/17 08:51:27;;;;;;;;;;;20.70;93.70;;;;;;5083253;28;19936;-60
2022/09/17 08:54:02;;;;;;;;;;;19.60;94.20;;;;;;5084841;28;19925;-59
2022/09/17 08:56:30;;;;;;;;;;;18.60;95.40;;;;;;5107640;28;20316;-59
2022/09/17 08:59:02;;;;;;;;;;;17.50;97.00;;;;;;5084589;28;20303;-60
2022/09/17 09:01:33;;;;;;;;;;;16.70;97.30;;;;;;5077026;28;19939;-60
2022/09/17 09:04:06;;;;;;;;;;;16.10;98.00;;;;;;5086506;28;20273;-59
2022/09/17 09:06:35;;;;;;;;;;;15.70;98.80;;;;;;5087084;28;19939;-60
2022/09/17 09:09:02;;;;;;;;;;;15.60;99.90;;;;;;5086736;28;20019;-59
2022/09/17 09:11:29;;;;;;;;;;;15.70;99.60;;;;;;5087928;28;20023;-60
2022/09/17 09:14:15;;;;;;;;;;;15.50;99.90;;;;;;5099688;28;19931;-59
2022/09/17 09:16:44;;;;;;;;;;;15.20;99.90;;;;;;5076647;28;19928;-64
2022/09/17 09:19:20;;;;;;;;;;;15.10;99.90;;;;;;5074393;28;19932;-61
2022/09/17 09:22:11;;;;;;;;;;;14.90;99.90;;;;;;5082162;28;19983;-59
2022/09/17 09:24:40;;;;;;;;;;;14.70;99.90;;;;;;5082642;28;19959;-60
2022/09/17 09:27:19;;;;;;;;;;;14.60;99.90;;;;;;5065254;28;19932;-61
2022/09/17 09:29:50;;;;;;;;;;;14.60;99.90;;;;;;5089356;28;19979;-64
2022/09/17 09:32:16;;;;;;;;;;;14.00;99.90;;;;;;5086611;28;19924;-60
2022/09/17 09:34:41;;;;;;;;;;;13.50;99.90;;;;;;5097444;28;20255;-61
2022/09/17 09:37:20;;;;;;;;;;;13.30;99.90;;;;;;5098430;28;20599;-60
2022/09/17 09:39:47;;;;;;;;;;;13.10;99.90;;;;;;5077988;28;20365;-64
2022/09/17 09:42:28;;;;;;;;;;;13.20;99.90;;;;;;5087156;28;19932;-61
2022/09/17 09:44:55;;;;;;;;;;;13.10;99.90;;;;;;5089613;28;20459;-60
2022/09/17 09:47:25;;;;;;;;;;;13.10;99.90;;;;;;5118896;28;20266;-61
2022/09/17 09:49:56;;;;;;;;;;;13.30;99.90;;;;;;5107209;28;20029;-62
2022/09/17 09:52:45;;;;;;;;;;;13.50;99.90;;;;;;5088981;28;19963;-64
2022/09/17 09:55:11;;;;;;;;;;;13.70;99.90;;;;;;5048988;28;19931;-61
2022/09/17 09:57:47;;;;;;;;;;;13.90;99.90;;;;;;5093705;28;19935;-62
2022/09/17 10:00:39;;;;;;;;;;;14.00;99.90;;;;;;5087972;28;19940;-63
2022/09/17 10:03:23;;;;;;;;;;;14.30;99.90;;;;;;5089367;28;19924;-62
2022/09/17 10:05:51;;;;;;;;;;;14.60;99.90;;;;;;5089601;28;20295;-64
2022/09/17 10:08:17;;;;;;;;;;;14.60;99.90;;;;;;5083407;28;20344;-61
2022/09/17 10:10:55;;;;;;;;;;;14.70;99.90;;;;;;5090849;28;20019;-62
2022/09/17 10:13:21;;;;;;;;;;;14.90;99.90;;;;;;5090458;28;19924;-62
2022/09/17 10:15:46;;;;;;;;;;;15.00;99.90;;;;;;5097846;28;19927;-62
2022/09/17 10:18:19;;;;;;;;;;;14.90;99.90;;;;;;5088544;28;20255;-59
2022/09/17 10:20:49;;;;;;;;;;;14.60;99.90;;;;;;5086031;28;19935;-60
2022/09/17 10:23:14;;;;;;;;;;;14.50;99.90;;;;;;5090717;28;19971;-62
2022/09/17 10:25:41;;;;;;;;;;;14.30;99.90;;;;;;5092791;28;19928;-61
2022/09/17 10:28:20;;;;;;;;;;;14.30;99.90;;;;;;5092342;28;19928;-59
2022/09/17 10:30:59;;;;;;;;;;;14.10;99.90;;;;;;5092442;28;19935;-60
2022/09/17 10:33:27;;;;;;;;;;;14.10;99.90;;;;;;5088576;28;19966;-60
2022/09/17 10:35:53;;;;;;;;;;;14.10;99.90;;;;;;5093182;28;19931;-60
2022/09/17 10:38:30;;;;;;;;;;;14.20;99.90;;;;;;5098699;28;19934;-61
2022/09/17 10:41:23;;;;;;;;;;;14.30;99.90;;;;;;5092859;28;19964;-61
2022/09/17 10:43:49;;;;;;;;;;;14.50;99.90;;;;;;5087046;28;19997;-60
2022/09/17 10:46:41;;;;;;;;;;;14.80;99.90;;;;;;5106901;28;20309;-64
2022/09/17 10:49:10;;;;;;;;;;;15.10;99.90;;;;;;5063742;28;20301;-63
2022/09/17 10:51:35;;;;;;;;;;;15.30;99.90;;;;;;5108018;28;20305;-63
2022/09/17 10:54:20;;;;;;;;;;;15.40;99.90;;;;;;5091645;28;19924;-63
2022/09/17 10:56:48;;;;;;;;;;;15.50;99.90;;;;;;5075346;28;20250;-64
2022/09/17 10:59:22;;;;;;;;;;;15.50;99.90;;;;;;5073290;28;20105;-65
2022/09/17 11:02:18;;;;;;;;;;;15.50;99.90;;;;;;5073659;28;19981;-63
2022/09/17 11:04:46;;;;;;;;;;;15.50;99.90;;;;;;5092255;28;20308;-62
2022/09/17 11:07:30;;;;;;;;;;;15.50;99.90;;;;;;5072560;28;19973;-63
2022/09/17 11:10:11;;;;;;;;;;;15.60;99.90;;;;;;5089374;28;19957;-65
2022/09/17 11:12:38;;;;;;;;;;;15.70;99.40;;;;;;5090581;28;19924;-63
2022/09/17 11:15:13;;;;;;;;;;;15.90;99.90;;;;;;5069038;28;19932;-62
2022/09/17 11:17:49;;;;;;;;;;;16.00;99.40;;;;;;5083558;28;19930;-64
2022/09/17 11:20:26;;;;;;;;;;;16.00;99.70;;;;;;5106021;28;19969;-65
2022/09/17 11:22:52;;;;;;;;;;;16.10;98.40;;;;;;5106575;28;20022;-64
2022/09/17 11:25:17;;;;;;;;;;;16.20;98.50;;;;;;5086170;28;20086;-65
2022/09/17 11:27:45;;;;;;;;;;;16.20;97.90;;;;;;5091176;28;19927;-63
2022/09/17 11:30:18;;;;;;;;;;;16.20;97.00;;;;;;5091040;28;20031;-64
2022/09/17 11:32:47;;;;;;;;;;;16.20;97.40;;;;;;5091569;28;19924;-64
2022/09/17 11:35:26;;;;;;;;;;;16.30;97.70;;;;;;5072895;28;19938;-61
2022/09/17 11:38:01;;;;;;;;;;;16.40;97.90;;;;;;5087782;28;20015;-63
2022/09/17 11:40:29;;;;;;;;;;;16.40;97.90;;;;;;5090212;28;19971;-63
2022/09/17 11:42:55;;;;;;;;;;;16.40;98.50;;;;;;5086867;28;19928;-64
2022/09/17 11:45:26;;;;;;;;;;;16.50;99.40;;;;;;5090546;28;20093;-62
2022/09/17 11:47:55;;;;;;;;;;;16.50;98.20;;;;;;5091985;28;19924;-61
2022/09/17 11:50:24;;;;;;;;;;;16.50;98.20;;;;;;5090383;28;20274;-63
2022/09/17 11:52:58;;;;;;;;;;;16.60;98.70;;;;;;5101823;28;20280;-63
2022/09/17 11:55:32;;;;;;;;;;;16.80;99.30;;;;;;5110583;28;20458;-62
2022/09/17 11:58:07;;;;;;;;;;;16.90;97.80;;;;;;5107262;28;19971;-62
2022/09/17 12:00:33;;;;;;;;;;;16.70;97.70;;;;;;5085313;28;19969;-64
2022/09/17 12:03:22;;;;;;;;;;;16.50;98.60;;;;;;5103384;28;19924;-65
2022/09/17 12:05:53;;;;;;;;;;;16.40;97.10;;;;;;5074330;28;19928;-64
2022/09/17 12:08:18;;;;;;;;;;;16.40;97.60;;;;;;5091054;28;19924;-63
2022/09/17 12:11:03;;;;;;;;;;;16.40;97.60;;;;;;5074385;28;19929;-62
2022/09/17 12:13:29;;;;;;;;;;;16.40;96.80;;;;;;5087973;28;19939;-62
2022/09/17 12:16:07;;;;;;;;;;;16.30;96.40;;;;;;5090519;28;19924;-63
2022/09/17 12:18:38;;;;;;;;;;;16.40;97.20;;;;;;5090733;28;19970;-61
2022/09/17 12:21:06;;;;;;;;;;;16.40;98.00;;;;;;5087768;28;19928;-63
2022/09/17 12:23:42;;;;;;;;;;;16.50;97.50;;;;;;5070927;28;19928;-60
2022/09/17 12:26:13;;;;;;;;;;;16.60;98.90;;;;;;5089977;28;19928;-63
2022/09/17 12:28:45;;;;;;;;;;;16.50;99.30;;;;;;5090475;28;19924;-61
2022/09/17 12:31:16;;;;;;;;;;;16.20;98.00;;;;;;5101363;28;19931;-61
2022/09/17 12:33:48;;;;;;;;;;;16.00;97.30;;;;;;5089895;28;20389;-66
2022/09/17 12:36:32;;;;;;;;;;;15.90;97.90;;;;;;5089930;28;19931;-62
2022/09/17 12:39:03;;;;;;;;;;;16.00;97.90;;;;;;5097289;28;19960;-62
2022/09/17 12:41:40;;;;;;;;;;;16.00;98.00;;;;;;5098386;28;19928;-62
2022/09/17 12:44:24;;;;;;;;;;;16.00;98.50;;;;;;5089584;28;20411;-60
2022/09/17 12:47:13;;;;;;;;;;;16.00;98.80;;;;;;5092818;28;20273;-62
2022/09/17 12:49:45;;;;;;;;;;;16.00;98.60;;;;;;5111118;28;19931;-62
2022/09/17 12:52:29;;;;;;;;;;;16.00;98.50;;;;;;5091271;28;19923;-64
2022/09/17 12:55:19;;;;;;;;;;;16.00;98.60;;;;;;5103553;28;19930;-63
2022/09/17 12:57:57;;;;;;;;;;;16.00;99.30;;;;;;5110872;28;19961;-63
2022/09/17 13:00:23;;;;;;;;;;;16.10;99.00;;;;;;5109749;28;20280;-63
2022/09/17 13:02:55;;;;;;;;;;;16.30;98.50;;;;;;5092473;28;19927;-62
2022/09/17 13:05:40;;;;;;;;;;;16.30;98.00;;;;;;5108697;28;20326;-63
2022/09/17 13:08:26;;;;;;;;;;;16.40;98.70;;;;;;5096160;28;19986;-62
2022/09/17 13:11:03;;;;;;;;;;;16.50;97.90;;;;;;5031643;28;19924;-64
2022/09/17 13:13:51;;;;;;;;;;;16.50;98.50;;;;;;5103799;28;19924;-62
2022/09/17 13:16:22;;;;;;;;;;;16.40;97.70;;;;;;5088170;28;19920;-61
2022/09/17 13:18:56;;;;;;;;;;;16.20;98.10;;;;;;5089340;28;20017;-62
2022/09/17 13:21:32;;;;;;;;;;;16.10;98.70;;;;;;5072950;28;19979;-64
2022/09/17 13:23:58;;;;;;;;;;;16.10;98.40;;;;;;5084725;28;19928;-66
2022/09/17 13:26:33;;;;;;;;;;;16.10;98.90;;;;;;5086630;28;20293;-65
2022/09/17 13:29:00;;;;;;;;;;;16.10;98.80;;;;;;5088253;28;20403;-66
2022/09/17 13:31:38;;;;;;;;;;;16.10;97.50;;;;;;5071957;28;19924;-63
2022/09/17 13:34:16;;;;;;;;;;;16.00;96.10;;;;;;5080618;28;19983;-66
2022/09/17 13:36:44;;;;;;;;;;;16.00;95.30;;;;;;5079410;28;19928;-64
2022/09/17 13:39:30;;;;;;;;;;;16.10;96.40;;;;;;5102582;28;19932;-65
2022/09/17 13:42:02;;;;;;;;;;;16.10;95.80;;;;;;5081912;28;20308;-66
2022/09/17 13:44:28;;;;;;;;;;;16.10;96.40;;;;;;5095026;28;19924;-67
2022/09/17 13:47:06;;;;;;;;;;;16.00;96.40;;;;;;5093669;28;19934;-66
2022/09/17 13:49:32;;;;;;;;;;;16.10;97.00;;;;;;5093545;28;20022;-65
2022/09/17 13:51:58;;;;;;;;;;;16.10;96.40;;;;;;5095153;28;20065;-65
2022/09/17 13:54:34;;;;;;;;;;;16.10;95.70;;;;;;5075213;28;19932;-67
2022/09/17 13:57:06;;;;;;;;;;;16.00;94.70;;;;;;5092734;28;19928;-65
2022/09/17 13:59:35;;;;;;;;;;;16.00;94.70;;;;;;5093155;28;19931;-66
2022/09/17 14:02:06;;;;;;;;;;;16.10;94.60;;;;;;5104094;28;19930;-65
2022/09/17 14:04:39;;;;;;;;;;;16.00;94.80;;;;;;5071756;28;19924;-65
2022/09/17 14:07:20;;;;;;;;;;;16.10;95.20;;;;;;5095719;28;19928;-66
2022/09/17 14:09:56;;;;;;;;;;;16.10;95.70;;;;;;5073005;28;20023;-68
2022/09/17 14:12:40;;;;;;;;;;;16.00;96.20;;;;;;5092153;28;20260;-63
2022/09/17 14:15:24;;;;;;;;;;;16.00;98.60;;;;;;5090577;28;19988;-65
2022/09/17 14:17:52;;;;;;;;;;;15.80;99.90;;;;;;5077045;28;19932;-67
2022/09/17 14:20:20;;;;;;;;;;;15.60;99.90;;;;;;5074081;28;20376;-65
2022/09/17 14:22:53;;;;;;;;;;;15.50;99.90;;;;;;5074373;28;19927;-65
2022/09/17 14:25:21;;;;;;;;;;;15.40;99.80;;;;;;5074674;28;19928;-65
2022/09/17 14:27:55;;;;;;;;;;;15.40;99.90;;;;;;5074310;28;20276;-64
2022/09/17 14:30:22;;;;;;;;;;;15.50;99.20;;;;;;5089161;28;20392;-64
2022/09/17 14:33:00;;;;;;;;;;;15.50;99.20;;;;;;5074934;28;20018;-65
2022/09/17 14:35:44;;;;;;;;;;;15.70;99.40;;;;;;5094132;28;19928;-65
2022/09/17 14:38:19;;;;;;;;;;;15.80;99.30;;;;;;5092070;28;19935;-65